sensor_id;sensor_type;location;lat;lon;timestamp;temperature;humidity
23063;DHT22;11699;43.704;10.430;2023-05-10T00:01:35;18.10;99.90
23063;DHT22;11699;43.704;10.430;2023-05-10T00:04:04;18.10;99.90
23063;DHT22;11699;43.704;10.430;2023-05-10T00:06:31;18.00;99.90
23063;DHT22;11699;43.704;10.430;2023-05-10T00:08:59;17.90;99.90
23063;DHT22;11699;43.704;10.430;2023-05-10T00:11:26;17.90;99.90
23063;DHT22;11699;43.704;10.430;2023-05-10T00:13:53;17.80;99.90
23063;DHT22;11699;43.704;10.430;2023-05-10T00:16:20;17.70;99.90
23063;DHT22;11699;43.704;10.430;2023-05-10T00:18:48;17.70;99.90
23063;DHT22;11699;43.704;10.430;2023-05-10T00:21:16;17.60;99.90
23063;DHT22;11699;43.704;10.430;2023-05-10T00:23:44;17.60;99.90
23063;DHT22;11699;43.704;10.430;2023-05-10T00:26:11;17.50;99.90
23063;DHT22;11699;43.704;10.430;2023-05-10T00:28:38;17.60;99.90
23063;DHT22;11699;43.704;10.430;2023-05-10T00:31:05;17.50;99.90
23063;DHT22;11699;43.704;10.430;2023-05-10T00:33:32;17.50;99.90
23063;DHT22;11699;43.704;10.430;2023-05-10T00:36:00;17.50;99.90
23063;DHT22;11699;43.704;10.430;2023-05-10T00:38:28;17.50;99.90
23063;DHT22;11699;43.704;10.430;2023-05-10T00:40:56;17.50;99.90
23063;DHT22;11699;43.704;10.430;2023-05-10T00:43:23;17.50;99.90
23063;DHT22;11699;43.704;10.430;2023-05-10T00:45:51;17.40;99.90
23063;DHT22;11699;43.704;10.430;2023-05-10T00:48:18;17.40;99.90
23063;DHT22;11699;43.704;10.430;2023-05-10T00:50:45;17.40;99.90
23063;DHT22;11699;43.704;10.430;2023-05-10T00:53:14;17.40;99.90
23063;DHT22;11699;43.704;10.430;2023-05-10T00:55:43;17.30;99.90
23063;DHT22;11699;43.704;10.430;2023-05-10T00:58:10;17.30;99.90
23063;DHT22;11699;43.704;10.430;2023-05-10T01:00:42;17.30;99.90
23063;DHT22;11699;43.704;10.430;2023-05-10T01:03:10;17.20;99.90
23063;DHT22;11699;43.704;10.430;2023-05-10T01:05:37;17.20;99.90
23063;DHT22;11699;43.704;10.430;2023-05-10T01:08:05;17.20;99.90
23063;DHT22;11699;43.704;10.430;2023-05-10T01:10:34;17.10;99.90
23063;DHT22;11699;43.704;10.430;2023-05-10T01:13:03;17.10;99.90
23063;DHT22;11699;43.704;10.430;2023-05-10T01:15:31;17.10;99.90
23063;DHT22;11699;43.704;10.430;2023-05-10T01:17:58;17.10;99.90
23063;DHT22;11699;43.704;10.430;2023-05-10T01:20:28;17.10;99.90
23063;DHT22;11699;43.704;10.430;2023-05-10T01:23:15;17.10;99.90
23063;DHT22;11699;43.704;10.430;2023-05-10T01:26:14;17.10;99.90
23063;DHT22;11699;43.704;10.430;2023-05-10T01:32:12;17.00;99.90
23063;DHT22;11699;43.704;10.430;2023-05-10T01:34:47;16.90;99.90
23063;DHT22;11699;43.704;10.430;2023-05-10T01:37:22;16.90;99.90
23063;DHT22;11699;43.704;10.430;2023-05-10T01:39:58;16.90;99.90
23063;DHT22;11699;43.704;10.430;2023-05-10T01:42:31;16.80;99.90
23063;DHT22;11699;43.704;10.430;2023-05-10T01:45:10;16.90;99.90
23063;DHT22;11699;43.704;10.430;2023-05-10T01:47:43;16.80;99.90
23063;DHT22;11699;43.704;10.430;2023-05-10T01:50:15;16.90;99.90
23063;DHT22;11699;43.704;10.430;2023-05-10T01:52:45;16.80;99.90
23063;DHT22;11699;43.704;10.430;2023-05-10T01:55:16;16.80;99.90
23063;DHT22;11699;43.704;10.430;2023-05-10T01:57:46;16.80;99.90
23063;DHT22;11699;43.704;10.430;2023-05-10T02:00:15;16.90;99.90
23063;DHT22;11699;43.704;10.430;2023-05-10T02:02:45;17.00;99.90
23063;DHT22;11699;43.704;10.430;2023-05-10T02:05:15;17.10;99.90
23063;DHT22;11699;43.704;10.430;2023-05-10T02:07:43;17.20;99.90
23063;DHT22;11699;43.704;10.430;2023-05-10T02:10:12;17.20;99.90
23063;DHT22;11699;43.704;10.430;2023-05-10T02:12:42;17.20;99.90
23063;DHT22;11699;43.704;10.430;2023-05-10T02:15:11;17.30;99.90
23063;DHT22;11699;43.704;10.430;2023-05-10T02:17:40;17.30;99.90
23063;DHT22;11699;43.704;10.430;2023-05-10T02:20:11;17.20;99.90
23063;DHT22;11699;43.704;10.430;2023-05-10T02:22:40;17.20;99.90
23063;DHT22;11699;43.704;10.430;2023-05-10T02:25:09;17.20;99.90
23063;DHT22;11699;43.704;10.430;2023-05-10T02:27:37;17.20;99.90
23063;DHT22;11699;43.704;10.430;2023-05-10T02:30:07;17.40;99.90
23063;DHT22;11699;43.704;10.430;2023-05-10T02:32:35;17.40;99.90
23063;DHT22;11699;43.704;10.430;2023-05-10T02:35:04;17.40;99.90
23063;DHT22;11699;43.704;10.430;2023-05-10T02:37:33;17.50;99.90
23063;DHT22;11699;43.704;10.430;2023-05-10T02:40:01;17.50;99.90
23063;DHT22;11699;43.704;10.430;2023-05-10T02:42:35;17.50;99.90
23063;DHT22;11699;43.704;10.430;2023-05-10T02:45:07;17.50;99.90
23063;DHT22;11699;43.704;10.430;2023-05-10T02:47:35;17.60;99.90
23063;DHT22;11699;43.704;10.430;2023-05-10T02:50:03;17.70;99.90
23063;DHT22;11699;43.704;10.430;2023-05-10T02:52:38;17.70;99.90
23063;DHT22;11699;43.704;10.430;2023-05-10T02:55:09;17.60;99.90
23063;DHT22;11699;43.704;10.430;2023-05-10T02:57:41;17.70;99.90
23063;DHT22;11699;43.704;10.430;2023-05-10T03:00:11;17.70;99.90
23063;DHT22;11699;43.704;10.430;2023-05-10T03:02:38;17.70;99.90
23063;DHT22;11699;43.704;10.430;2023-05-10T03:05:05;17.60;99.90
23063;DHT22;11699;43.704;10.430;2023-05-10T03:07:33;17.50;99.90
23063;DHT22;11699;43.704;10.430;2023-05-10T03:10:02;17.40;99.90
23063;DHT22;11699;43.704;10.430;2023-05-10T03:12:39;17.40;99.90
23063;DHT22;11699;43.704;10.430;2023-05-10T03:15:13;17.30;99.90
23063;DHT22;11699;43.704;10.430;2023-05-10T03:17:47;17.20;99.90
23063;DHT22;11699;43.704;10.430;2023-05-10T03:20:21;17.00;99.90
23063;DHT22;11699;43.704;10.430;2023-05-10T03:22:53;17.10;99.90
23063;DHT22;11699;43.704;10.430;2023-05-10T03:25:24;17.10;99.90
23063;DHT22;11699;43.704;10.430;2023-05-10T03:27:52;16.90;99.90
23063;DHT22;11699;43.704;10.430;2023-05-10T03:30:20;17.00;99.90
23063;DHT22;11699;43.704;10.430;2023-05-10T03:32:48;17.00;99.90
23063;DHT22;11699;43.704;10.430;2023-05-10T03:35:15;17.00;99.90
23063;DHT22;11699;43.704;10.430;2023-05-10T03:37:43;17.00;99.90
23063;DHT22;11699;43.704;10.430;2023-05-10T03:40:11;17.00;99.90
23063;DHT22;11699;43.704;10.430;2023-05-10T03:42:39;17.10;99.90
23063;DHT22;11699;43.704;10.430;2023-05-10T03:45:08;16.90;99.90
23063;DHT22;11699;43.704;10.430;2023-05-10T03:47:35;16.80;99.90
23063;DHT22;11699;43.704;10.430;2023-05-10T03:50:03;16.70;99.90
23063;DHT22;11699;43.704;10.430;2023-05-10T03:52:30;16.60;99.90
23063;DHT22;11699;43.704;10.430;2023-05-10T03:54:58;16.50;99.90
23063;DHT22;11699;43.704;10.430;2023-05-10T03:57:25;16.50;99.90
23063;DHT22;11699;43.704;10.430;2023-05-10T03:59:53;16.50;99.90
23063;DHT22;11699;43.704;10.430;2023-05-10T04:02:21;16.50;99.90
23063;DHT22;11699;43.704;10.430;2023-05-10T04:04:48;16.60;99.90
23063;DHT22;11699;43.704;10.430;2023-05-10T04:07:15;16.60;99.90
23063;DHT22;11699;43.704;10.430;2023-05-10T04:09:42;16.50;99.90
23063;DHT22;11699;43.704;10.430;2023-05-10T04:12:09;16.40;99.90
23063;DHT22;11699;43.704;10.430;2023-05-10T04:14:37;16.40;99.90
23063;DHT22;11699;43.704;10.430;2023-05-10T04:17:05;16.50;99.90
23063;DHT22;11699;43.704;10.430;2023-05-10T04:19:33;16.60;99.90
23063;DHT22;11699;43.704;10.430;2023-05-10T04:22:02;16.50;99.90
23063;DHT22;11699;43.704;10.430;2023-05-10T04:24:29;16.40;99.90
23063;DHT22;11699;43.704;10.430;2023-05-10T04:26:56;16.40;99.90
23063;DHT22;11699;43.704;10.430;2023-05-10T04:29:23;16.40;99.90
23063;DHT22;11699;43.704;10.430;2023-05-10T04:31:51;16.30;99.90
23063;DHT22;11699;43.704;10.430;2023-05-10T04:34:21;16.30;99.90
23063;DHT22;11699;43.704;10.430;2023-05-10T04:36:49;16.30;99.90
23063;DHT22;11699;43.704;10.430;2023-05-10T04:39:16;16.30;99.90
23063;DHT22;11699;43.704;10.430;2023-05-10T04:41:43;16.30;99.90
23063;DHT22;11699;43.704;10.430;2023-05-10T04:44:11;16.30;99.90
23063;DHT22;11699;43.704;10.430;2023-05-10T04:46:38;16.20;99.90
23063;DHT22;11699;43.704;10.430;2023-05-10T04:49:05;16.20;99.90
23063;DHT22;11699;43.704;10.430;2023-05-10T04:51:34;16.20;99.90
23063;DHT22;11699;43.704;10.430;2023-05-10T04:54:01;16.30;99.90
23063;DHT22;11699;43.704;10.430;2023-05-10T04:56:29;16.20;99.90
23063;DHT22;11699;43.704;10.430;2023-05-10T04:58:56;16.10;99.90
23063;DHT22;11699;43.704;10.430;2023-05-10T05:01:23;16.10;99.90
23063;DHT22;11699;43.704;10.430;2023-05-10T05:03:51;16.00;99.90
23063;DHT22;11699;43.704;10.430;2023-05-10T05:06:18;16.00;99.90
23063;DHT22;11699;43.704;10.430;2023-05-10T05:08:48;16.00;99.90
23063;DHT22;11699;43.704;10.430;2023-05-10T05:11:16;16.10;99.90
23063;DHT22;11699;43.704;10.430;2023-05-10T05:13:43;16.10;99.90
23063;DHT22;11699;43.704;10.430;2023-05-10T05:16:11;16.10;99.90
23063;DHT22;11699;43.704;10.430;2023-05-10T05:18:38;16.20;99.90
23063;DHT22;11699;43.704;10.430;2023-05-10T05:21:14;16.20;99.90
23063;DHT22;11699;43.704;10.430;2023-05-10T05:23:42;16.20;99.90
23063;DHT22;11699;43.704;10.430;2023-05-10T05:26:13;16.30;99.90
23063;DHT22;11699;43.704;10.430;2023-05-10T05:28:41;16.30;99.90
23063;DHT22;11699;43.704;10.430;2023-05-10T05:31:09;16.30;99.90
23063;DHT22;11699;43.704;10.430;2023-05-10T05:33:37;16.30;99.90
23063;DHT22;11699;43.704;10.430;2023-05-10T05:36:05;16.40;99.90
23063;DHT22;11699;43.704;10.430;2023-05-10T05:38:32;16.50;99.90
23063;DHT22;11699;43.704;10.430;2023-05-10T05:41:00;16.50;99.90
23063;DHT22;11699;43.704;10.430;2023-05-10T05:43:29;16.50;99.90
23063;DHT22;11699;43.704;10.430;2023-05-10T05:45:56;16.50;99.90
23063;DHT22;11699;43.704;10.430;2023-05-10T05:48:24;16.50;99.90
23063;DHT22;11699;43.704;10.430;2023-05-10T05:50:54;16.40;99.90
23063;DHT22;11699;43.704;10.430;2023-05-10T05:53:22;16.50;99.90
23063;DHT22;11699;43.704;10.430;2023-05-10T05:55:53;16.50;99.90
23063;DHT22;11699;43.704;10.430;2023-05-10T05:58:21;16.50;99.90
23063;DHT22;11699;43.704;10.430;2023-05-10T06:00:50;16.50;99.90
23063;DHT22;11699;43.704;10.430;2023-05-10T06:03:18;16.60;99.90
23063;DHT22;11699;43.704;10.430;2023-05-10T06:05:45;16.50;99.90
23063;DHT22;11699;43.704;10.430;2023-05-10T06:08:13;16.60;99.90
23063;DHT22;11699;43.704;10.430;2023-05-10T06:10:40;16.60;99.90
23063;DHT22;11699;43.704;10.430;2023-05-10T06:13:07;16.60;99.90
23063;DHT22;11699;43.704;10.430;2023-05-10T06:15:35;16.70;99.90
23063;DHT22;11699;43.704;10.430;2023-05-10T06:18:03;16.80;99.90
23063;DHT22;11699;43.704;10.430;2023-05-10T06:20:31;16.80;99.90
23063;DHT22;11699;43.704;10.430;2023-05-10T06:23:00;16.80;99.90
23063;DHT22;11699;43.704;10.430;2023-05-10T06:25:27;16.90;99.90
23063;DHT22;11699;43.704;10.430;2023-05-10T06:27:54;16.80;99.90
23063;DHT22;11699;43.704;10.430;2023-05-10T06:30:24;16.80;99.90
23063;DHT22;11699;43.704;10.430;2023-05-10T06:32:54;16.70;99.90
23063;DHT22;11699;43.704;10.430;2023-05-10T06:35:23;16.70;99.90
23063;DHT22;11699;43.704;10.430;2023-05-10T06:37:50;16.70;99.90
23063;DHT22;11699;43.704;10.430;2023-05-10T06:40:18;16.70;99.90
23063;DHT22;11699;43.704;10.430;2023-05-10T06:42:46;16.60;99.90
23063;DHT22;11699;43.704;10.430;2023-05-10T06:45:13;16.70;99.90
23063;DHT22;11699;43.704;10.430;2023-05-10T06:47:41;16.70;99.90
23063;DHT22;11699;43.704;10.430;2023-05-10T06:50:09;16.70;99.90
23063;DHT22;11699;43.704;10.430;2023-05-10T06:52:39;16.70;99.90
23063;DHT22;11699;43.704;10.430;2023-05-10T06:55:07;16.80;99.90
23063;DHT22;11699;43.704;10.430;2023-05-10T06:57:35;16.80;99.90
23063;DHT22;11699;43.704;10.430;2023-05-10T07:00:03;16.80;99.90
23063;DHT22;11699;43.704;10.430;2023-05-10T07:02:31;16.80;99.90
23063;DHT22;11699;43.704;10.430;2023-05-10T07:04:58;16.90;99.90
23063;DHT22;11699;43.704;10.430;2023-05-10T07:07:26;16.90;99.90
23063;DHT22;11699;43.704;10.430;2023-05-10T07:09:55;17.00;99.90
23063;DHT22;11699;43.704;10.430;2023-05-10T07:12:23;16.90;99.90
23063;DHT22;11699;43.704;10.430;2023-05-10T07:14:50;16.90;99.90
23063;DHT22;11699;43.704;10.430;2023-05-10T07:17:18;16.80;99.90
23063;DHT22;11699;43.704;10.430;2023-05-10T07:19:45;16.80;99.90
23063;DHT22;11699;43.704;10.430;2023-05-10T07:22:13;16.90;99.90
23063;DHT22;11699;43.704;10.430;2023-05-10T07:24:40;17.10;99.90
23063;DHT22;11699;43.704;10.430;2023-05-10T07:27:09;17.10;99.90
23063;DHT22;11699;43.704;10.430;2023-05-10T07:29:36;17.20;99.90
23063;DHT22;11699;43.704;10.430;2023-05-10T07:32:04;17.10;99.90
23063;DHT22;11699;43.704;10.430;2023-05-10T07:34:31;17.20;99.90
23063;DHT22;11699;43.704;10.430;2023-05-10T07:36:59;17.30;99.90
23063;DHT22;11699;43.704;10.430;2023-05-10T07:39:26;17.30;99.90
23063;DHT22;11699;43.704;10.430;2023-05-10T07:41:53;17.50;99.90
23063;DHT22;11699;43.704;10.430;2023-05-10T07:44:22;17.30;99.90
23063;DHT22;11699;43.704;10.430;2023-05-10T07:46:49;17.30;99.90
23063;DHT22;11699;43.704;10.430;2023-05-10T07:49:16;17.30;99.90
23063;DHT22;11699;43.704;10.430;2023-05-10T07:51:44;17.20;99.90
23063;DHT22;11699;43.704;10.430;2023-05-10T07:54:11;17.20;99.90
23063;DHT22;11699;43.704;10.430;2023-05-10T07:56:39;17.10;99.90
23063;DHT22;11699;43.704;10.430;2023-05-10T07:59:15;17.20;99.90
23063;DHT22;11699;43.704;10.430;2023-05-10T08:01:44;17.20;99.90
23063;DHT22;11699;43.704;10.430;2023-05-10T08:04:12;17.00;99.90
23063;DHT22;11699;43.704;10.430;2023-05-10T08:06:39;16.90;99.90
23063;DHT22;11699;43.704;10.430;2023-05-10T08:09:06;16.90;99.90
23063;DHT22;11699;43.704;10.430;2023-05-10T08:11:34;16.80;99.90
23063;DHT22;11699;43.704;10.430;2023-05-10T08:14:01;16.80;99.90
23063;DHT22;11699;43.704;10.430;2023-05-10T08:16:28;16.70;99.90
23063;DHT22;11699;43.704;10.430;2023-05-10T08:18:57;16.60;99.90
23063;DHT22;11699;43.704;10.430;2023-05-10T08:21:25;16.60;99.90
23063;DHT22;11699;43.704;10.430;2023-05-10T08:23:52;16.60;99.90
23063;DHT22;11699;43.704;10.430;2023-05-10T08:26:20;16.50;99.90
23063;DHT22;11699;43.704;10.430;2023-05-10T08:28:47;16.50;99.90
23063;DHT22;11699;43.704;10.430;2023-05-10T08:31:15;16.50;99.90
23063;DHT22;11699;43.704;10.430;2023-05-10T08:33:43;16.60;99.90
23063;DHT22;11699;43.704;10.430;2023-05-10T08:36:12;16.50;99.90
23063;DHT22;11699;43.704;10.430;2023-05-10T08:38:45;16.50;99.90
23063;DHT22;11699;43.704;10.430;2023-05-10T08:41:13;16.50;99.90
23063;DHT22;11699;43.704;10.430;2023-05-10T08:43:41;16.50;99.90
23063;DHT22;11699;43.704;10.430;2023-05-10T08:46:15;16.50;99.90
23063;DHT22;11699;43.704;10.430;2023-05-10T08:48:43;16.50;99.90
23063;DHT22;11699;43.704;10.430;2023-05-10T08:51:15;16.50;99.90
23063;DHT22;11699;43.704;10.430;2023-05-10T08:53:44;16.40;99.90
23063;DHT22;11699;43.704;10.430;2023-05-10T08:56:12;16.40;99.90
23063;DHT22;11699;43.704;10.430;2023-05-10T08:58:41;16.40;99.90
23063;DHT22;11699;43.704;10.430;2023-05-10T09:01:09;16.50;99.90
23063;DHT22;11699;43.704;10.430;2023-05-10T09:03:38;16.50;99.90
23063;DHT22;11699;43.704;10.430;2023-05-10T09:06:06;16.50;99.90
23063;DHT22;11699;43.704;10.430;2023-05-10T09:08:36;16.50;99.90
23063;DHT22;11699;43.704;10.430;2023-05-10T09:11:05;16.50;99.90
23063;DHT22;11699;43.704;10.430;2023-05-10T09:13:32;16.60;99.90
23063;DHT22;11699;43.704;10.430;2023-05-10T09:16:00;16.60;99.90
23063;DHT22;11699;43.704;10.430;2023-05-10T09:18:28;16.60;99.90
23063;DHT22;11699;43.704;10.430;2023-05-10T09:20:55;16.70;99.90
23063;DHT22;11699;43.704;10.430;2023-05-10T09:23:23;16.80;99.90
23063;DHT22;11699;43.704;10.430;2023-05-10T09:26:07;16.80;99.90
23063;DHT22;11699;43.704;10.430;2023-05-10T09:28:50;16.70;99.90
23063;DHT22;11699;43.704;10.430;2023-05-10T09:31:18;16.80;99.90
23063;DHT22;11699;43.704;10.430;2023-05-10T09:33:46;16.90;99.90
23063;DHT22;11699;43.704;10.430;2023-05-10T09:36:15;16.90;99.90
23063;DHT22;11699;43.704;10.430;2023-05-10T09:38:46;17.10;99.90
23063;DHT22;11699;43.704;10.430;2023-05-10T09:41:19;17.20;99.90
23063;DHT22;11699;43.704;10.430;2023-05-10T09:43:47;17.30;99.90
23063;DHT22;11699;43.704;10.430;2023-05-10T09:46:15;17.30;99.90
23063;DHT22;11699;43.704;10.430;2023-05-10T09:48:44;17.50;99.90
23063;DHT22;11699;43.704;10.430;2023-05-10T09:51:19;17.70;99.90
23063;DHT22;11699;43.704;10.430;2023-05-10T09:53:46;17.70;99.90
23063;DHT22;11699;43.704;10.430;2023-05-10T09:56:34;17.90;99.90
23063;DHT22;11699;43.704;10.430;2023-05-10T09:59:05;18.00;99.90
23063;DHT22;11699;43.704;10.430;2023-05-10T10:01:33;17.80;99.90
23063;DHT22;11699;43.704;10.430;2023-05-10T10:04:03;17.60;99.90
23063;DHT22;11699;43.704;10.430;2023-05-10T10:06:35;17.60;99.90
23063;DHT22;11699;43.704;10.430;2023-05-10T10:09:04;17.60;99.90
23063;DHT22;11699;43.704;10.430;2023-05-10T10:11:32;17.50;99.90
23063;DHT22;11699;43.704;10.430;2023-05-10T10:14:01;17.40;99.90
23063;DHT22;11699;43.704;10.430;2023-05-10T10:16:29;17.30;99.90
23063;DHT22;11699;43.704;10.430;2023-05-10T10:18:57;17.30;99.90
23063;DHT22;11699;43.704;10.430;2023-05-10T10:21:25;17.30;99.90
23063;DHT22;11699;43.704;10.430;2023-05-10T10:23:53;17.30;99.90
23063;DHT22;11699;43.704;10.430;2023-05-10T10:26:22;17.20;99.90
23063;DHT22;11699;43.704;10.430;2023-05-10T10:28:56;17.20;99.90
23063;DHT22;11699;43.704;10.430;2023-05-10T10:31:34;17.20;99.90
23063;DHT22;11699;43.704;10.430;2023-05-10T10:34:06;17.20;99.90
23063;DHT22;11699;43.704;10.430;2023-05-10T10:36:40;17.10;99.90
23063;DHT22;11699;43.704;10.430;2023-05-10T10:39:09;17.00;99.90
23063;DHT22;11699;43.704;10.430;2023-05-10T10:41:39;17.00;99.90
23063;DHT22;11699;43.704;10.430;2023-05-10T10:44:28;16.90;99.90
23063;DHT22;11699;43.704;10.430;2023-05-10T10:47:07;16.90;99.90
23063;DHT22;11699;43.704;10.430;2023-05-10T10:49:41;16.90;99.90
23063;DHT22;11699;43.704;10.430;2023-05-10T10:52:21;16.90;99.90
23063;DHT22;11699;43.704;10.430;2023-05-10T10:54:53;16.90;99.90
23063;DHT22;11699;43.704;10.430;2023-05-10T10:57:24;17.00;99.90
23063;DHT22;11699;43.704;10.430;2023-05-10T11:00:19;17.00;99.90
23063;DHT22;11699;43.704;10.430;2023-05-10T11:02:49;17.00;99.90
23063;DHT22;11699;43.704;10.430;2023-05-10T11:05:41;17.10;99.90
23063;DHT22;11699;43.704;10.430;2023-05-10T11:08:14;17.00;99.90
23063;DHT22;11699;43.704;10.430;2023-05-10T11:13:34;17.00;99.90
23063;DHT22;11699;43.704;10.430;2023-05-10T11:16:12;17.00;99.90
23063;DHT22;11699;43.704;10.430;2023-05-10T11:18:51;17.20;99.90
23063;DHT22;11699;43.704;10.430;2023-05-10T11:21:19;17.20;99.90
23063;DHT22;11699;43.704;10.430;2023-05-10T11:23:51;17.30;99.90
23063;DHT22;11699;43.704;10.430;2023-05-10T11:26:20;17.40;99.90
23063;DHT22;11699;43.704;10.430;2023-05-10T11:28:52;17.40;99.90
23063;DHT22;11699;43.704;10.430;2023-05-10T11:31:21;17.30;99.90
23063;DHT22;11699;43.704;10.430;2023-05-10T11:33:52;17.40;99.90
23063;DHT22;11699;43.704;10.430;2023-05-10T11:36:21;17.30;99.90
23063;DHT22;11699;43.704;10.430;2023-05-10T11:38:48;17.30;99.90
23063;DHT22;11699;43.704;10.430;2023-05-10T11:41:17;17.30;99.90
23063;DHT22;11699;43.704;10.430;2023-05-10T11:43:49;17.10;99.90
23063;DHT22;11699;43.704;10.430;2023-05-10T11:46:19;17.10;99.90
23063;DHT22;11699;43.704;10.430;2023-05-10T11:48:48;17.00;99.90
23063;DHT22;11699;43.704;10.430;2023-05-10T11:51:20;17.00;99.90
23063;DHT22;11699;43.704;10.430;2023-05-10T11:53:49;16.90;99.90
23063;DHT22;11699;43.704;10.430;2023-05-10T11:56:17;16.90;99.90
23063;DHT22;11699;43.704;10.430;2023-05-10T11:58:44;16.90;99.90
23063;DHT22;11699;43.704;10.430;2023-05-10T12:01:13;16.80;99.90
23063;DHT22;11699;43.704;10.430;2023-05-10T12:03:40;16.90;99.90
23063;DHT22;11699;43.704;10.430;2023-05-10T12:06:08;16.80;99.90
23063;DHT22;11699;43.704;10.430;2023-05-10T12:08:36;16.80;99.90
23063;DHT22;11699;43.704;10.430;2023-05-10T12:11:12;16.80;99.90
23063;DHT22;11699;43.704;10.430;2023-05-10T12:13:42;16.80;99.90
23063;DHT22;11699;43.704;10.430;2023-05-10T12:16:13;16.80;99.90
23063;DHT22;11699;43.704;10.430;2023-05-10T12:18:41;16.80;99.90
23063;DHT22;11699;43.704;10.430;2023-05-10T12:21:10;16.80;99.90
23063;DHT22;11699;43.704;10.430;2023-05-10T12:23:39;16.90;99.90
23063;DHT22;11699;43.704;10.430;2023-05-10T12:26:09;16.70;99.90
23063;DHT22;11699;43.704;10.430;2023-05-10T12:28:37;16.70;99.90
23063;DHT22;11699;43.704;10.430;2023-05-10T12:31:05;16.70;99.90
23063;DHT22;11699;43.704;10.430;2023-05-10T12:33:36;16.60;99.90
23063;DHT22;11699;43.704;10.430;2023-05-10T12:36:07;16.20;99.90
23063;DHT22;11699;43.704;10.430;2023-05-10T12:38:36;16.10;99.90
23063;DHT22;11699;43.704;10.430;2023-05-10T12:41:07;16.10;99.90
23063;DHT22;11699;43.704;10.430;2023-05-10T12:43:35;16.10;99.90
23063;DHT22;11699;43.704;10.430;2023-05-10T12:46:06;16.10;99.90
23063;DHT22;11699;43.704;10.430;2023-05-10T12:48:34;16.10;99.90
23063;DHT22;11699;43.704;10.430;2023-05-10T12:51:02;16.20;99.90
23063;DHT22;11699;43.704;10.430;2023-05-10T12:53:30;16.50;99.90
23063;DHT22;11699;43.704;10.430;2023-05-10T12:55:57;16.60;99.90
23063;DHT22;11699;43.704;10.430;2023-05-10T12:58:26;16.60;99.90
23063;DHT22;11699;43.704;10.430;2023-05-10T13:00:53;16.40;99.90
23063;DHT22;11699;43.704;10.430;2023-05-10T13:03:22;16.20;99.90
23063;DHT22;11699;43.704;10.430;2023-05-10T13:05:49;16.10;99.90
23063;DHT22;11699;43.704;10.430;2023-05-10T13:08:17;16.10;99.90
23063;DHT22;11699;43.704;10.430;2023-05-10T13:10:44;16.00;99.90
23063;DHT22;11699;43.704;10.430;2023-05-10T13:13:11;16.00;99.90
23063;DHT22;11699;43.704;10.430;2023-05-10T13:15:40;16.00;99.90
23063;DHT22;11699;43.704;10.430;2023-05-10T13:18:08;16.10;99.90
23063;DHT22;11699;43.704;10.430;2023-05-10T13:20:35;16.10;99.90
23063;DHT22;11699;43.704;10.430;2023-05-10T13:23:03;16.30;99.90
23063;DHT22;11699;43.704;10.430;2023-05-10T13:25:30;16.50;99.90
23063;DHT22;11699;43.704;10.430;2023-05-10T13:27:57;16.60;99.90
23063;DHT22;11699;43.704;10.430;2023-05-10T13:30:25;16.80;99.90
23063;DHT22;11699;43.704;10.430;2023-05-10T13:32:53;16.90;99.90
23063;DHT22;11699;43.704;10.430;2023-05-10T13:35:21;17.00;99.90
23063;DHT22;11699;43.704;10.430;2023-05-10T13:37:48;16.90;99.90
23063;DHT22;11699;43.704;10.430;2023-05-10T13:40:16;17.00;99.90
23063;DHT22;11699;43.704;10.430;2023-05-10T13:42:43;17.20;99.90
23063;DHT22;11699;43.704;10.430;2023-05-10T13:45:10;17.50;99.90
23063;DHT22;11699;43.704;10.430;2023-05-10T13:47:38;17.60;99.90
23063;DHT22;11699;43.704;10.430;2023-05-10T13:50:08;17.80;99.90
23063;DHT22;11699;43.704;10.430;2023-05-10T13:52:36;18.10;99.90
23063;DHT22;11699;43.704;10.430;2023-05-10T13:55:04;18.20;99.90
23063;DHT22;11699;43.704;10.430;2023-05-10T13:57:31;18.10;99.90
23063;DHT22;11699;43.704;10.430;2023-05-10T14:00:00;18.00;99.90
23063;DHT22;11699;43.704;10.430;2023-05-10T14:02:27;17.70;99.90
23063;DHT22;11699;43.704;10.430;2023-05-10T14:04:54;17.90;99.90
23063;DHT22;11699;43.704;10.430;2023-05-10T14:07:23;18.40;99.90
23063;DHT22;11699;43.704;10.430;2023-05-10T14:09:51;18.90;99.90
23063;DHT22;11699;43.704;10.430;2023-05-10T14:12:18;19.00;99.90
23063;DHT22;11699;43.704;10.430;2023-05-10T14:14:45;18.90;99.90
23063;DHT22;11699;43.704;10.430;2023-05-10T14:17:13;19.00;99.90
23063;DHT22;11699;43.704;10.430;2023-05-10T14:19:41;18.80;99.90
23063;DHT22;11699;43.704;10.430;2023-05-10T14:22:08;18.60;99.90
23063;DHT22;11699;43.704;10.430;2023-05-10T14:24:38;18.30;99.90
23063;DHT22;11699;43.704;10.430;2023-05-10T14:27:05;18.10;99.90
23063;DHT22;11699;43.704;10.430;2023-05-10T14:29:32;17.90;99.90
23063;DHT22;11699;43.704;10.430;2023-05-10T14:32:00;17.70;99.90
23063;DHT22;11699;43.704;10.430;2023-05-10T14:34:28;17.70;99.90
23063;DHT22;11699;43.704;10.430;2023-05-10T14:36:55;17.60;99.90
23063;DHT22;11699;43.704;10.430;2023-05-10T14:39:23;17.70;99.90
23063;DHT22;11699;43.704;10.430;2023-05-10T14:41:51;17.70;99.90
23063;DHT22;11699;43.704;10.430;2023-05-10T14:44:20;17.60;99.90
23063;DHT22;11699;43.704;10.430;2023-05-10T14:46:47;17.40;99.90
23063;DHT22;11699;43.704;10.430;2023-05-10T14:49:15;17.40;99.90
23063;DHT22;11699;43.704;10.430;2023-05-10T14:51:42;17.40;99.90
23063;DHT22;11699;43.704;10.430;2023-05-10T14:54:10;17.50;99.90
23063;DHT22;11699;43.704;10.430;2023-05-10T14:56:38;17.30;99.90
23063;DHT22;11699;43.704;10.430;2023-05-10T14:59:08;17.30;99.90
23063;DHT22;11699;43.704;10.430;2023-05-10T15:01:36;17.20;99.90
23063;DHT22;11699;43.704;10.430;2023-05-10T15:04:04;17.20;99.90
23063;DHT22;11699;43.704;10.430;2023-05-10T15:06:32;17.10;99.90
23063;DHT22;11699;43.704;10.430;2023-05-10T15:09:00;17.20;99.90
23063;DHT22;11699;43.704;10.430;2023-05-10T15:11:28;17.30;99.90
23063;DHT22;11699;43.704;10.430;2023-05-10T15:13:56;17.30;99.90
23063;DHT22;11699;43.704;10.430;2023-05-10T15:16:25;17.40;99.90
23063;DHT22;11699;43.704;10.430;2023-05-10T15:18:52;17.40;99.90
23063;DHT22;11699;43.704;10.430;2023-05-10T15:21:19;17.40;99.90
23063;DHT22;11699;43.704;10.430;2023-05-10T15:23:47;17.40;99.90
23063;DHT22;11699;43.704;10.430;2023-05-10T15:26:15;17.50;99.90
23063;DHT22;11699;43.704;10.430;2023-05-10T15:28:42;17.60;99.90
23063;DHT22;11699;43.704;10.430;2023-05-10T15:31:10;17.70;99.90
23063;DHT22;11699;43.704;10.430;2023-05-10T15:33:38;17.70;99.90